Airfield :
LOGIN :

Register | Disclaimer

   EN    FR    IT 

 










Legend :    VFR   Marginal VFR   IFR   Intensive IFR   Very Intensive IFR
Visi :
Ceiling :
>= 8 km
>= 3000ft
5 to 8 km
1000 to 3000 ft
1500m to 5 km
500 to 1000 ft
800 to 1500m
200 to 500 ft
< 800m
< 200 ft
Symbols :   Thunderstorms  Fog  Heavy snow  Heavy precipitations  Wind > 20 kt
SIGMETs :     Misc.  Thunderstorms  Icing  Turbulence  Mountain Waves  Volcanic Ashes






- Airport Elevation : 622 ft
- IATA code : BRS


EGGD - Bristol Int.

CURRENT METAR :
  • 172220Z AUTO 11006KT 9999 NCD 03/02 Q1038

EXPIRED METARs :
  • 172150Z AUTO 11007KT 9999 NCD 02/02 Q1038
  • 172120Z AUTO 10006KT 9999 NCD 02/01 Q1039
  • 172050Z AUTO 10006KT 9999 NCD 01/01 Q1039
  • 172020Z AUTO 10004KT 9999 NCD 02/02 Q1039
  • 171950Z AUTO 09006KT 9999 NCD 01/00 Q1038

TAF TAF EGGD
Valid from the 17 at 18:00 until the 18 at 18:00 UTC


171701Z 1718/1818 VRB04KT CAVOK
PROB40 1718/1720 8000
TEMPO 1720/1812 5000 BR
PROB40 1802/1810 0300 FG FZFG VV///
BECMG 1810/1813 BKN018
PROB40
TEMPO 1810/1813 SCT001 BKN002
ATIS : +44 1275 473 666



MET'MAP, your aeronautical weather chart ! - Copyright ORBIFLY December 2007 - Disclaimer

ORBIFLY MET'MAP TEAM :

Programming & Development : Alexandra Zaïnal
Concept & original design : Baudouin d'Aumeries
Assistance for programming : Marc-Olivier Méhu
Technical & hardware support : Manuel Goepfert

Contact : metmap@orbifly.com




SOURCES & CREDITS :

   NOAA